sensor_id;sensor_type;location;lat;lon;timestamp;P1;durP1;ratioP1;P2;durP2;ratioP2
37973;SDS011;23796;51.458;7.000;2023-10-31T00:01:51;3.20;;;2.33;;
37973;SDS011;23796;51.458;7.000;2023-10-31T00:04:20;3.13;;;2.42;;
37973;SDS011;23796;51.458;7.000;2023-10-31T00:06:46;2.70;;;2.00;;
37973;SDS011;23796;51.458;7.000;2023-10-31T00:09:11;3.10;;;2.00;;
37973;SDS011;23796;51.458;7.000;2023-10-31T00:11:37;3.08;;;1.90;;
37973;SDS011;23796;51.458;7.000;2023-10-31T00:14:03;3.33;;;1.63;;
37973;SDS011;23796;51.458;7.000;2023-10-31T00:16:28;2.90;;;1.90;;
37973;SDS011;23796;51.458;7.000;2023-10-31T00:18:54;2.55;;;1.80;;
37973;SDS011;23796;51.458;7.000;2023-10-31T00:21:20;2.55;;;1.13;;
37973;SDS011;23796;51.458;7.000;2023-10-31T00:23:46;1.77;;;1.08;;
37973;SDS011;23796;51.458;7.000;2023-10-31T00:26:13;2.60;;;1.40;;
37973;SDS011;23796;51.458;7.000;2023-10-31T00:28:42;2.20;;;1.05;;
37973;SDS011;23796;51.458;7.000;2023-10-31T00:31:07;1.92;;;1.00;;
37973;SDS011;23796;51.458;7.000;2023-10-31T00:33:34;2.05;;;1.10;;
37973;SDS011;23796;51.458;7.000;2023-10-31T00:36:02;1.95;;;1.10;;
37973;SDS011;23796;51.458;7.000;2023-10-31T00:38:33;2.17;;;1.10;;
37973;SDS011;23796;51.458;7.000;2023-10-31T00:41:01;1.92;;;1.10;;
37973;SDS011;23796;51.458;7.000;2023-10-31T00:43:27;1.77;;;1.00;;
37973;SDS011;23796;51.458;7.000;2023-10-31T00:45:52;1.92;;;1.05;;
37973;SDS011;23796;51.458;7.000;2023-10-31T00:48:21;1.95;;;1.13;;
37973;SDS011;23796;51.458;7.000;2023-10-31T00:50:46;1.95;;;1.00;;
37973;SDS011;23796;51.458;7.000;2023-10-31T00:53:14;1.73;;;0.98;;
37973;SDS011;23796;51.458;7.000;2023-10-31T00:55:41;1.90;;;0.88;;
37973;SDS011;23796;51.458;7.000;2023-10-31T00:58:07;2.60;;;1.05;;
37973;SDS011;23796;51.458;7.000;2023-10-31T01:00:33;1.85;;;0.82;;
37973;SDS011;23796;51.458;7.000;2023-10-31T01:02:59;2.58;;;1.10;;
37973;SDS011;23796;51.458;7.000;2023-10-31T01:05:27;2.50;;;0.90;;
37973;SDS011;23796;51.458;7.000;2023-10-31T01:07:53;2.35;;;1.10;;
37973;SDS011;23796;51.458;7.000;2023-10-31T01:10:19;3.05;;;0.80;;
37973;SDS011;23796;51.458;7.000;2023-10-31T01:12:48;1.13;;;0.50;;
37973;SDS011;23796;51.458;7.000;2023-10-31T01:15:13;1.60;;;0.40;;
37973;SDS011;23796;51.458;7.000;2023-10-31T01:17:39;1.35;;;0.43;;
37973;SDS011;23796;51.458;7.000;2023-10-31T01:20:05;1.75;;;0.50;;
37973;SDS011;23796;51.458;7.000;2023-10-31T01:22:31;1.73;;;0.60;;
37973;SDS011;23796;51.458;7.000;2023-10-31T01:24:57;1.98;;;0.70;;
37973;SDS011;23796;51.458;7.000;2023-10-31T01:27:22;2.05;;;0.60;;
37973;SDS011;23796;51.458;7.000;2023-10-31T01:29:48;2.55;;;0.70;;
37973;SDS011;23796;51.458;7.000;2023-10-31T01:32:14;1.70;;;0.88;;
37973;SDS011;23796;51.458;7.000;2023-10-31T01:34:39;3.10;;;1.30;;
37973;SDS011;23796;51.458;7.000;2023-10-31T01:37:05;3.00;;;1.40;;
37973;SDS011;23796;51.458;7.000;2023-10-31T01:39:35;3.05;;;1.67;;
37973;SDS011;23796;51.458;7.000;2023-10-31T01:42:03;4.28;;;1.70;;
37973;SDS011;23796;51.458;7.000;2023-10-31T01:44:32;4.85;;;1.85;;
37973;SDS011;23796;51.458;7.000;2023-10-31T01:46:57;3.35;;;1.92;;
37973;SDS011;23796;51.458;7.000;2023-10-31T01:49:23;4.45;;;2.20;;
37973;SDS011;23796;51.458;7.000;2023-10-31T01:51:49;3.95;;;1.92;;
37973;SDS011;23796;51.458;7.000;2023-10-31T01:54:15;5.32;;;2.60;;
37973;SDS011;23796;51.458;7.000;2023-10-31T01:56:43;3.53;;;2.40;;
37973;SDS011;23796;51.458;7.000;2023-10-31T01:59:09;4.65;;;2.50;;
37973;SDS011;23796;51.458;7.000;2023-10-31T02:01:38;5.25;;;3.03;;
37973;SDS011;23796;51.458;7.000;2023-10-31T02:04:07;4.38;;;2.53;;
37973;SDS011;23796;51.458;7.000;2023-10-31T02:06:32;3.97;;;2.75;;
37973;SDS011;23796;51.458;7.000;2023-10-31T02:08:58;4.63;;;2.75;;
37973;SDS011;23796;51.458;7.000;2023-10-31T02:11:24;4.00;;;2.60;;
37973;SDS011;23796;51.458;7.000;2023-10-31T02:13:49;3.85;;;2.97;;
37973;SDS011;23796;51.458;7.000;2023-10-31T02:16:15;3.45;;;2.15;;
37973;SDS011;23796;51.458;7.000;2023-10-31T02:18:40;5.03;;;2.60;;
37973;SDS011;23796;51.458;7.000;2023-10-31T02:21:06;5.47;;;3.30;;
37973;SDS011;23796;51.458;7.000;2023-10-31T02:23:31;4.47;;;2.70;;
37973;SDS011;23796;51.458;7.000;2023-10-31T02:25:57;4.32;;;2.60;;
37973;SDS011;23796;51.458;7.000;2023-10-31T02:28:23;5.97;;;3.28;;
37973;SDS011;23796;51.458;7.000;2023-10-31T02:30:52;5.30;;;2.65;;
37973;SDS011;23796;51.458;7.000;2023-10-31T02:33:19;4.30;;;2.75;;
37973;SDS011;23796;51.458;7.000;2023-10-31T02:35:45;4.45;;;1.98;;
37973;SDS011;23796;51.458;7.000;2023-10-31T02:38:10;5.90;;;3.13;;
37973;SDS011;23796;51.458;7.000;2023-10-31T02:40:36;4.80;;;2.53;;
37973;SDS011;23796;51.458;7.000;2023-10-31T02:43:02;4.97;;;2.72;;
37973;SDS011;23796;51.458;7.000;2023-10-31T02:45:27;4.25;;;2.90;;
37973;SDS011;23796;51.458;7.000;2023-10-31T02:47:53;4.38;;;3.10;;
37973;SDS011;23796;51.458;7.000;2023-10-31T02:50:18;4.60;;;2.90;;
37973;SDS011;23796;51.458;7.000;2023-10-31T02:52:44;7.70;;;3.70;;
37973;SDS011;23796;51.458;7.000;2023-10-31T02:55:10;5.30;;;4.28;;
37973;SDS011;23796;51.458;7.000;2023-10-31T02:57:36;5.85;;;4.50;;
37973;SDS011;23796;51.458;7.000;2023-10-31T03:00:02;6.93;;;4.50;;
37973;SDS011;23796;51.458;7.000;2023-10-31T03:02:28;7.07;;;4.93;;
37973;SDS011;23796;51.458;7.000;2023-10-31T03:04:58;9.45;;;5.13;;
37973;SDS011;23796;51.458;7.000;2023-10-31T03:07:24;7.80;;;4.72;;
37973;SDS011;23796;51.458;7.000;2023-10-31T03:09:49;7.40;;;5.72;;
37973;SDS011;23796;51.458;7.000;2023-10-31T03:12:19;8.40;;;5.90;;
37973;SDS011;23796;51.458;7.000;2023-10-31T03:14:47;7.45;;;6.18;;
37973;SDS011;23796;51.458;7.000;2023-10-31T03:17:12;6.68;;;5.78;;
37973;SDS011;23796;51.458;7.000;2023-10-31T03:19:38;8.43;;;6.25;;
37973;SDS011;23796;51.458;7.000;2023-10-31T03:22:04;10.07;;;6.68;;
37973;SDS011;23796;51.458;7.000;2023-10-31T03:24:31;8.48;;;6.05;;
37973;SDS011;23796;51.458;7.000;2023-10-31T03:26:56;7.35;;;6.00;;
37973;SDS011;23796;51.458;7.000;2023-10-31T03:29:22;9.07;;;6.90;;
37973;SDS011;23796;51.458;7.000;2023-10-31T03:31:47;7.35;;;5.93;;
37973;SDS011;23796;51.458;7.000;2023-10-31T03:34:13;8.10;;;6.00;;
37973;SDS011;23796;51.458;7.000;2023-10-31T03:36:39;8.15;;;6.15;;
37973;SDS011;23796;51.458;7.000;2023-10-31T03:39:04;7.97;;;5.63;;
37973;SDS011;23796;51.458;7.000;2023-10-31T03:41:30;8.70;;;5.82;;
37973;SDS011;23796;51.458;7.000;2023-10-31T03:43:56;7.78;;;5.78;;
37973;SDS011;23796;51.458;7.000;2023-10-31T03:46:21;7.13;;;5.00;;
37973;SDS011;23796;51.458;7.000;2023-10-31T03:48:49;7.65;;;5.20;;
37973;SDS011;23796;51.458;7.000;2023-10-31T03:51:15;7.32;;;4.97;;
37973;SDS011;23796;51.458;7.000;2023-10-31T03:53:40;5.57;;;4.53;;
37973;SDS011;23796;51.458;7.000;2023-10-31T03:56:06;5.43;;;3.80;;
37973;SDS011;23796;51.458;7.000;2023-10-31T03:58:31;6.75;;;3.78;;
37973;SDS011;23796;51.458;7.000;2023-10-31T04:00:57;6.97;;;3.92;;
37973;SDS011;23796;51.458;7.000;2023-10-31T04:03:22;6.38;;;4.53;;
37973;SDS011;23796;51.458;7.000;2023-10-31T04:05:48;4.97;;;3.97;;
37973;SDS011;23796;51.458;7.000;2023-10-31T04:08:13;6.20;;;3.88;;
37973;SDS011;23796;51.458;7.000;2023-10-31T04:10:39;5.13;;;3.90;;
37973;SDS011;23796;51.458;7.000;2023-10-31T04:13:05;6.82;;;4.88;;
37973;SDS011;23796;51.458;7.000;2023-10-31T04:15:30;6.55;;;4.82;;
37973;SDS011;23796;51.458;7.000;2023-10-31T04:17:58;6.95;;;5.20;;
37973;SDS011;23796;51.458;7.000;2023-10-31T04:20:24;6.38;;;4.88;;
37973;SDS011;23796;51.458;7.000;2023-10-31T04:22:49;5.95;;;4.15;;
37973;SDS011;23796;51.458;7.000;2023-10-31T04:25:17;6.38;;;4.97;;
37973;SDS011;23796;51.458;7.000;2023-10-31T04:27:42;6.45;;;4.53;;
37973;SDS011;23796;51.458;7.000;2023-10-31T04:30:08;5.63;;;4.18;;
37973;SDS011;23796;51.458;7.000;2023-10-31T04:32:34;5.68;;;4.32;;
37973;SDS011;23796;51.458;7.000;2023-10-31T04:35:00;5.47;;;4.13;;
37973;SDS011;23796;51.458;7.000;2023-10-31T04:37:25;6.38;;;4.03;;
37973;SDS011;23796;51.458;7.000;2023-10-31T04:39:53;5.25;;;3.90;;
37973;SDS011;23796;51.458;7.000;2023-10-31T04:42:19;8.40;;;4.47;;
37973;SDS011;23796;51.458;7.000;2023-10-31T04:44:45;5.30;;;4.25;;
37973;SDS011;23796;51.458;7.000;2023-10-31T04:47:11;5.50;;;4.28;;
37973;SDS011;23796;51.458;7.000;2023-10-31T04:49:36;5.38;;;4.15;;
37973;SDS011;23796;51.458;7.000;2023-10-31T04:52:02;6.63;;;4.82;;
37973;SDS011;23796;51.458;7.000;2023-10-31T04:54:28;5.90;;;4.70;;
37973;SDS011;23796;51.458;7.000;2023-10-31T04:56:55;6.50;;;5.10;;
37973;SDS011;23796;51.458;7.000;2023-10-31T04:59:21;5.95;;;4.32;;
37973;SDS011;23796;51.458;7.000;2023-10-31T05:01:50;12.00;;;4.82;;
37973;SDS011;23796;51.458;7.000;2023-10-31T05:04:20;6.32;;;5.07;;
37973;SDS011;23796;51.458;7.000;2023-10-31T05:06:45;6.78;;;4.75;;
37973;SDS011;23796;51.458;7.000;2023-10-31T05:09:11;5.60;;;4.20;;
37973;SDS011;23796;51.458;7.000;2023-10-31T05:11:40;5.20;;;3.78;;
37973;SDS011;23796;51.458;7.000;2023-10-31T05:14:08;7.18;;;4.40;;
37973;SDS011;23796;51.458;7.000;2023-10-31T05:16:40;6.15;;;4.55;;
37973;SDS011;23796;51.458;7.000;2023-10-31T05:19:09;6.80;;;4.70;;
37973;SDS011;23796;51.458;7.000;2023-10-31T05:21:35;6.03;;;4.70;;
37973;SDS011;23796;51.458;7.000;2023-10-31T05:24:01;6.38;;;4.75;;
37973;SDS011;23796;51.458;7.000;2023-10-31T05:26:27;5.97;;;4.40;;
37973;SDS011;23796;51.458;7.000;2023-10-31T05:28:54;7.18;;;5.30;;
37973;SDS011;23796;51.458;7.000;2023-10-31T05:31:21;7.13;;;5.88;;
37973;SDS011;23796;51.458;7.000;2023-10-31T05:33:47;6.50;;;5.10;;
37973;SDS011;23796;51.458;7.000;2023-10-31T05:36:19;8.43;;;5.68;;
37973;SDS011;23796;51.458;7.000;2023-10-31T05:38:46;6.65;;;5.65;;
37973;SDS011;23796;51.458;7.000;2023-10-31T05:41:12;7.22;;;5.55;;
37973;SDS011;23796;51.458;7.000;2023-10-31T05:43:38;7.53;;;6.20;;
37973;SDS011;23796;51.458;7.000;2023-10-31T05:46:04;7.28;;;5.88;;
37973;SDS011;23796;51.458;7.000;2023-10-31T05:48:30;8.18;;;6.28;;
37973;SDS011;23796;51.458;7.000;2023-10-31T05:50:56;8.63;;;6.75;;
37973;SDS011;23796;51.458;7.000;2023-10-31T05:53:22;9.25;;;6.93;;
37973;SDS011;23796;51.458;7.000;2023-10-31T05:55:47;9.90;;;6.78;;
37973;SDS011;23796;51.458;7.000;2023-10-31T05:58:13;7.85;;;6.13;;
37973;SDS011;23796;51.458;7.000;2023-10-31T06:00:38;9.57;;;6.82;;
37973;SDS011;23796;51.458;7.000;2023-10-31T06:03:04;7.45;;;6.63;;
37973;SDS011;23796;51.458;7.000;2023-10-31T06:05:30;8.10;;;7.20;;
37973;SDS011;23796;51.458;7.000;2023-10-31T06:07:55;9.05;;;7.30;;
37973;SDS011;23796;51.458;7.000;2023-10-31T06:10:23;10.75;;;7.15;;
37973;SDS011;23796;51.458;7.000;2023-10-31T06:12:49;8.88;;;6.93;;
37973;SDS011;23796;51.458;7.000;2023-10-31T06:15:14;8.50;;;6.65;;
37973;SDS011;23796;51.458;7.000;2023-10-31T06:17:40;9.02;;;7.68;;
37973;SDS011;23796;51.458;7.000;2023-10-31T06:20:08;8.68;;;6.60;;
37973;SDS011;23796;51.458;7.000;2023-10-31T06:22:34;8.90;;;7.13;;
37973;SDS011;23796;51.458;7.000;2023-10-31T06:25:00;8.48;;;7.45;;
37973;SDS011;23796;51.458;7.000;2023-10-31T06:27:26;8.75;;;7.15;;
37973;SDS011;23796;51.458;7.000;2023-10-31T06:29:52;8.27;;;7.18;;
37973;SDS011;23796;51.458;7.000;2023-10-31T06:32:18;9.52;;;6.88;;
37973;SDS011;23796;51.458;7.000;2023-10-31T06:34:43;7.00;;;6.30;;
37973;SDS011;23796;51.458;7.000;2023-10-31T06:37:09;7.95;;;7.15;;
37973;SDS011;23796;51.458;7.000;2023-10-31T06:39:34;7.07;;;6.00;;
37973;SDS011;23796;51.458;7.000;2023-10-31T06:42:00;9.75;;;6.60;;
37973;SDS011;23796;51.458;7.000;2023-10-31T06:44:28;8.38;;;6.32;;
37973;SDS011;23796;51.458;7.000;2023-10-31T06:46:53;6.75;;;5.55;;
37973;SDS011;23796;51.458;7.000;2023-10-31T06:49:19;7.10;;;6.40;;
37973;SDS011;23796;51.458;7.000;2023-10-31T06:51:45;8.45;;;5.93;;
37973;SDS011;23796;51.458;7.000;2023-10-31T06:54:11;7.07;;;6.10;;
37973;SDS011;23796;51.458;7.000;2023-10-31T06:56:36;9.15;;;5.95;;
37973;SDS011;23796;51.458;7.000;2023-10-31T06:59:02;6.05;;;5.32;;
37973;SDS011;23796;51.458;7.000;2023-10-31T07:01:28;6.65;;;5.75;;
37973;SDS011;23796;51.458;7.000;2023-10-31T07:03:53;7.13;;;5.38;;
37973;SDS011;23796;51.458;7.000;2023-10-31T07:06:19;5.95;;;5.35;;
37973;SDS011;23796;51.458;7.000;2023-10-31T07:08:46;6.75;;;5.40;;
37973;SDS011;23796;51.458;7.000;2023-10-31T07:11:11;6.72;;;6.03;;
37973;SDS011;23796;51.458;7.000;2023-10-31T07:13:37;7.38;;;6.10;;
37973;SDS011;23796;51.458;7.000;2023-10-31T07:16:07;7.65;;;5.93;;
37973;SDS011;23796;51.458;7.000;2023-10-31T07:18:33;8.23;;;6.00;;
37973;SDS011;23796;51.458;7.000;2023-10-31T07:20:58;7.18;;;5.15;;
37973;SDS011;23796;51.458;7.000;2023-10-31T07:23:24;7.28;;;5.60;;
37973;SDS011;23796;51.458;7.000;2023-10-31T07:25:50;6.40;;;5.60;;
37973;SDS011;23796;51.458;7.000;2023-10-31T07:28:18;6.85;;;4.53;;
37973;SDS011;23796;51.458;7.000;2023-10-31T07:30:43;6.22;;;4.95;;
37973;SDS011;23796;51.458;7.000;2023-10-31T07:33:09;5.97;;;4.45;;
37973;SDS011;23796;51.458;7.000;2023-10-31T07:35:37;5.80;;;4.93;;
37973;SDS011;23796;51.458;7.000;2023-10-31T07:38:02;5.45;;;4.72;;
37973;SDS011;23796;51.458;7.000;2023-10-31T07:40:28;8.63;;;5.53;;
37973;SDS011;23796;51.458;7.000;2023-10-31T07:42:53;6.75;;;5.82;;
37973;SDS011;23796;51.458;7.000;2023-10-31T07:45:22;7.82;;;5.80;;
37973;SDS011;23796;51.458;7.000;2023-10-31T07:47:47;6.82;;;5.85;;
37973;SDS011;23796;51.458;7.000;2023-10-31T07:50:13;7.18;;;5.60;;
37973;SDS011;23796;51.458;7.000;2023-10-31T07:52:38;8.32;;;6.68;;
37973;SDS011;23796;51.458;7.000;2023-10-31T07:55:04;7.05;;;6.15;;
37973;SDS011;23796;51.458;7.000;2023-10-31T07:57:30;7.72;;;6.25;;
37973;SDS011;23796;51.458;7.000;2023-10-31T07:59:58;7.88;;;6.15;;
37973;SDS011;23796;51.458;7.000;2023-10-31T08:02:26;7.78;;;5.82;;
37973;SDS011;23796;51.458;7.000;2023-10-31T08:04:52;7.50;;;6.57;;
37973;SDS011;23796;51.458;7.000;2023-10-31T08:07:19;8.07;;;6.05;;
37973;SDS011;23796;51.458;7.000;2023-10-31T08:09:45;8.57;;;6.10;;
37973;SDS011;23796;51.458;7.000;2023-10-31T08:12:11;6.90;;;5.43;;
37973;SDS011;23796;51.458;7.000;2023-10-31T08:14:36;6.85;;;5.60;;
37973;SDS011;23796;51.458;7.000;2023-10-31T08:17:02;5.78;;;5.05;;
37973;SDS011;23796;51.458;7.000;2023-10-31T08:19:28;7.63;;;5.55;;
37973;SDS011;23796;51.458;7.000;2023-10-31T08:21:53;6.38;;;5.07;;
37973;SDS011;23796;51.458;7.000;2023-10-31T08:24:21;7.70;;;5.88;;
37973;SDS011;23796;51.458;7.000;2023-10-31T08:26:47;11.48;;;5.00;;
37973;SDS011;23796;51.458;7.000;2023-10-31T08:29:13;7.53;;;5.57;;
37973;SDS011;23796;51.458;7.000;2023-10-31T08:31:38;7.32;;;6.00;;
37973;SDS011;23796;51.458;7.000;2023-10-31T08:34:04;7.47;;;6.00;;
37973;SDS011;23796;51.458;7.000;2023-10-31T08:36:30;6.53;;;5.63;;
37973;SDS011;23796;51.458;7.000;2023-10-31T08:38:55;7.07;;;6.10;;
37973;SDS011;23796;51.458;7.000;2023-10-31T08:41:21;8.10;;;5.65;;
37973;SDS011;23796;51.458;7.000;2023-10-31T08:43:47;6.43;;;5.07;;
37973;SDS011;23796;51.458;7.000;2023-10-31T08:46:13;6.05;;;4.90;;
37973;SDS011;23796;51.458;7.000;2023-10-31T08:48:38;5.60;;;4.43;;
37973;SDS011;23796;51.458;7.000;2023-10-31T08:51:06;6.28;;;5.40;;
37973;SDS011;23796;51.458;7.000;2023-10-31T08:53:34;6.45;;;4.90;;
37973;SDS011;23796;51.458;7.000;2023-10-31T08:56:02;5.30;;;4.28;;
37973;SDS011;23796;51.458;7.000;2023-10-31T08:58:28;5.88;;;4.57;;
37973;SDS011;23796;51.458;7.000;2023-10-31T09:00:54;5.28;;;3.90;;
37973;SDS011;23796;51.458;7.000;2023-10-31T09:03:20;5.13;;;4.03;;
37973;SDS011;23796;51.458;7.000;2023-10-31T09:05:45;5.95;;;4.13;;
37973;SDS011;23796;51.458;7.000;2023-10-31T09:08:13;6.88;;;4.38;;
37973;SDS011;23796;51.458;7.000;2023-10-31T09:10:39;5.63;;;4.03;;
37973;SDS011;23796;51.458;7.000;2023-10-31T09:13:06;6.13;;;4.20;;
37973;SDS011;23796;51.458;7.000;2023-10-31T09:15:34;5.40;;;3.75;;
37973;SDS011;23796;51.458;7.000;2023-10-31T09:18:01;5.82;;;4.22;;
37973;SDS011;23796;51.458;7.000;2023-10-31T09:20:27;6.32;;;4.00;;
37973;SDS011;23796;51.458;7.000;2023-10-31T09:22:52;6.53;;;3.80;;
37973;SDS011;23796;51.458;7.000;2023-10-31T09:25:18;5.95;;;4.95;;
37973;SDS011;23796;51.458;7.000;2023-10-31T09:27:46;6.20;;;3.90;;
37973;SDS011;23796;51.458;7.000;2023-10-31T09:30:14;6.60;;;3.55;;
37973;SDS011;23796;51.458;7.000;2023-10-31T09:32:40;5.82;;;3.35;;
37973;SDS011;23796;51.458;7.000;2023-10-31T09:35:05;5.05;;;3.33;;
37973;SDS011;23796;51.458;7.000;2023-10-31T09:37:33;4.95;;;3.05;;
37973;SDS011;23796;51.458;7.000;2023-10-31T09:40:00;4.88;;;3.42;;
37973;SDS011;23796;51.458;7.000;2023-10-31T09:42:28;5.45;;;3.53;;
37973;SDS011;23796;51.458;7.000;2023-10-31T09:44:54;7.10;;;3.00;;
37973;SDS011;23796;51.458;7.000;2023-10-31T09:47:22;4.88;;;3.10;;
37973;SDS011;23796;51.458;7.000;2023-10-31T09:49:48;5.00;;;3.60;;
37973;SDS011;23796;51.458;7.000;2023-10-31T09:52:14;5.40;;;3.22;;
37973;SDS011;23796;51.458;7.000;2023-10-31T09:54:39;5.72;;;3.38;;
37973;SDS011;23796;51.458;7.000;2023-10-31T09:57:07;5.25;;;3.28;;
37973;SDS011;23796;51.458;7.000;2023-10-31T09:59:34;5.13;;;3.13;;
37973;SDS011;23796;51.458;7.000;2023-10-31T10:02:00;5.60;;;3.45;;
37973;SDS011;23796;51.458;7.000;2023-10-31T10:04:26;4.85;;;3.30;;
37973;SDS011;23796;51.458;7.000;2023-10-31T10:06:58;6.40;;;3.40;;
37973;SDS011;23796;51.458;7.000;2023-10-31T10:11:51;6.03;;;3.78;;
37973;SDS011;23796;51.458;7.000;2023-10-31T10:14:17;5.20;;;4.00;;
37973;SDS011;23796;51.458;7.000;2023-10-31T10:16:43;5.93;;;4.00;;
37973;SDS011;23796;51.458;7.000;2023-10-31T10:19:15;5.65;;;4.82;;
37973;SDS011;23796;51.458;7.000;2023-10-31T10:21:52;5.72;;;3.50;;
37973;SDS011;23796;51.458;7.000;2023-10-31T10:24:19;8.25;;;5.15;;
37973;SDS011;23796;51.458;7.000;2023-10-31T10:26:46;6.05;;;4.32;;
37973;SDS011;23796;51.458;7.000;2023-10-31T10:29:12;6.50;;;3.83;;
37973;SDS011;23796;51.458;7.000;2023-10-31T10:31:38;8.63;;;4.07;;
37973;SDS011;23796;51.458;7.000;2023-10-31T10:34:04;5.22;;;3.58;;
37973;SDS011;23796;51.458;7.000;2023-10-31T10:36:31;5.72;;;4.05;;
37973;SDS011;23796;51.458;7.000;2023-10-31T10:38:58;6.07;;;3.65;;
37973;SDS011;23796;51.458;7.000;2023-10-31T10:41:25;5.13;;;3.75;;
37973;SDS011;23796;51.458;7.000;2023-10-31T10:44:03;8.70;;;7.00;;
37973;SDS011;23796;51.458;7.000;2023-10-31T10:46:32;5.47;;;3.70;;
37973;SDS011;23796;51.458;7.000;2023-10-31T10:48:59;5.93;;;4.45;;
37973;SDS011;23796;51.458;7.000;2023-10-31T10:51:32;7.10;;;3.20;;
37973;SDS011;23796;51.458;7.000;2023-10-31T10:54:18;8.73;;;4.38;;
37973;SDS011;23796;51.458;7.000;2023-10-31T10:56:53;5.38;;;3.25;;
37973;SDS011;23796;51.458;7.000;2023-10-31T10:59:30;5.45;;;3.10;;
37973;SDS011;23796;51.458;7.000;2023-10-31T11:02:06;5.33;;;2.97;;
37973;SDS011;23796;51.458;7.000;2023-10-31T11:04:33;5.75;;;3.15;;
37973;SDS011;23796;51.458;7.000;2023-10-31T11:06:59;5.63;;;2.80;;
37973;SDS011;23796;51.458;7.000;2023-10-31T11:09:26;5.45;;;3.33;;
37973;SDS011;23796;51.458;7.000;2023-10-31T11:11:55;6.25;;;3.05;;
37973;SDS011;23796;51.458;7.000;2023-10-31T11:14:22;5.68;;;3.15;;
37973;SDS011;23796;51.458;7.000;2023-10-31T11:16:54;5.80;;;2.63;;
37973;SDS011;23796;51.458;7.000;2023-10-31T11:19:22;4.32;;;2.28;;
37973;SDS011;23796;51.458;7.000;2023-10-31T11:21:52;5.93;;;3.05;;
37973;SDS011;23796;51.458;7.000;2023-10-31T11:24:31;5.60;;;2.90;;
37973;SDS011;23796;51.458;7.000;2023-10-31T11:27:00;4.75;;;2.40;;
37973;SDS011;23796;51.458;7.000;2023-10-31T11:29:26;6.50;;;2.90;;
37973;SDS011;23796;51.458;7.000;2023-10-31T11:31:55;5.60;;;2.30;;
37973;SDS011;23796;51.458;7.000;2023-10-31T11:34:21;5.63;;;2.45;;
37973;SDS011;23796;51.458;7.000;2023-10-31T11:36:47;6.78;;;2.55;;
37973;SDS011;23796;51.458;7.000;2023-10-31T11:39:20;5.38;;;2.40;;
37973;SDS011;23796;51.458;7.000;2023-10-31T11:41:53;8.25;;;2.80;;
37973;SDS011;23796;51.458;7.000;2023-10-31T11:44:22;7.53;;;2.40;;
37973;SDS011;23796;51.458;7.000;2023-10-31T11:46:50;4.60;;;1.90;;
37973;SDS011;23796;51.458;7.000;2023-10-31T11:49:17;6.05;;;2.88;;
37973;SDS011;23796;51.458;7.000;2023-10-31T11:51:46;6.47;;;2.53;;
37973;SDS011;23796;51.458;7.000;2023-10-31T11:54:13;4.80;;;2.40;;
37973;SDS011;23796;51.458;7.000;2023-10-31T11:56:39;7.68;;;2.40;;
37973;SDS011;23796;51.458;7.000;2023-10-31T11:59:05;5.75;;;2.67;;
37973;SDS011;23796;51.458;7.000;2023-10-31T12:01:43;6.40;;;2.85;;
37973;SDS011;23796;51.458;7.000;2023-10-31T12:04:09;6.28;;;2.78;;
37973;SDS011;23796;51.458;7.000;2023-10-31T12:06:46;6.20;;;3.53;;
37973;SDS011;23796;51.458;7.000;2023-10-31T12:09:25;7.15;;;4.78;;
37973;SDS011;23796;51.458;7.000;2023-10-31T12:11:50;7.35;;;3.38;;
37973;SDS011;23796;51.458;7.000;2023-10-31T12:14:18;6.53;;;2.72;;
37973;SDS011;23796;51.458;7.000;2023-10-31T12:16:45;6.85;;;3.63;;
37973;SDS011;23796;51.458;7.000;2023-10-31T12:19:11;4.90;;;2.67;;
37973;SDS011;23796;51.458;7.000;2023-10-31T12:21:38;7.13;;;2.20;;
37973;SDS011;23796;51.458;7.000;2023-10-31T12:24:11;4.22;;;2.03;;
37973;SDS011;23796;51.458;7.000;2023-10-31T12:26:38;9.82;;;3.35;;
37973;SDS011;23796;51.458;7.000;2023-10-31T12:29:15;4.05;;;1.70;;
37973;SDS011;23796;51.458;7.000;2023-10-31T12:31:49;6.45;;;2.17;;
37973;SDS011;23796;51.458;7.000;2023-10-31T12:34:19;6.03;;;2.03;;
37973;SDS011;23796;51.458;7.000;2023-10-31T12:36:46;4.32;;;1.55;;
37973;SDS011;23796;51.458;7.000;2023-10-31T12:39:13;6.40;;;2.13;;
37973;SDS011;23796;51.458;7.000;2023-10-31T12:41:41;3.15;;;1.15;;
37973;SDS011;23796;51.458;7.000;2023-10-31T12:44:08;4.32;;;1.65;;
37973;SDS011;23796;51.458;7.000;2023-10-31T12:46:38;6.10;;;1.65;;
37973;SDS011;23796;51.458;7.000;2023-10-31T12:49:04;5.50;;;1.58;;
37973;SDS011;23796;51.458;7.000;2023-10-31T12:51:35;4.00;;;1.35;;
37973;SDS011;23796;51.458;7.000;2023-10-31T12:54:01;4.75;;;1.50;;
37973;SDS011;23796;51.458;7.000;2023-10-31T12:56:39;3.60;;;1.48;;
37973;SDS011;23796;51.458;7.000;2023-10-31T12:59:06;3.97;;;1.50;;
37973;SDS011;23796;51.458;7.000;2023-10-31T13:01:34;3.80;;;1.15;;
37973;SDS011;23796;51.458;7.000;2023-10-31T13:04:01;5.32;;;1.85;;
37973;SDS011;23796;51.458;7.000;2023-10-31T13:06:28;4.88;;;1.20;;
37973;SDS011;23796;51.458;7.000;2023-10-31T13:08:55;3.53;;;1.30;;
37973;SDS011;23796;51.458;7.000;2023-10-31T13:11:22;3.25;;;1.33;;
37973;SDS011;23796;51.458;7.000;2023-10-31T13:13:51;3.58;;;1.25;;
37973;SDS011;23796;51.458;7.000;2023-10-31T13:16:18;4.50;;;1.60;;
37973;SDS011;23796;51.458;7.000;2023-10-31T13:18:44;2.83;;;0.90;;
37973;SDS011;23796;51.458;7.000;2023-10-31T13:21:09;3.88;;;1.15;;
37973;SDS011;23796;51.458;7.000;2023-10-31T13:23:36;4.78;;;1.38;;
37973;SDS011;23796;51.458;7.000;2023-10-31T13:26:03;3.17;;;1.00;;
37973;SDS011;23796;51.458;7.000;2023-10-31T13:28:29;2.20;;;1.00;;
37973;SDS011;23796;51.458;7.000;2023-10-31T13:30:57;6.45;;;1.35;;
37973;SDS011;23796;51.458;7.000;2023-10-31T13:33:22;3.88;;;0.90;;
37973;SDS011;23796;51.458;7.000;2023-10-31T13:35:48;4.35;;;0.88;;
37973;SDS011;23796;51.458;7.000;2023-10-31T13:38:14;3.10;;;1.02;;
37973;SDS011;23796;51.458;7.000;2023-10-31T13:40:40;3.22;;;1.13;;
37973;SDS011;23796;51.458;7.000;2023-10-31T13:43:06;3.50;;;0.90;;
37973;SDS011;23796;51.458;7.000;2023-10-31T13:45:31;3.35;;;1.00;;
37973;SDS011;23796;51.458;7.000;2023-10-31T13:47:59;6.18;;;1.63;;
37973;SDS011;23796;51.458;7.000;2023-10-31T13:50:25;2.80;;;1.20;;
37973;SDS011;23796;51.458;7.000;2023-10-31T13:52:50;4.35;;;1.10;;
37973;SDS011;23796;51.458;7.000;2023-10-31T13:55:17;2.63;;;0.98;;
37973;SDS011;23796;51.458;7.000;2023-10-31T13:57:45;3.13;;;0.90;;
37973;SDS011;23796;51.458;7.000;2023-10-31T14:00:15;3.22;;;1.20;;
37973;SDS011;23796;51.458;7.000;2023-10-31T14:02:43;3.53;;;1.25;;
37973;SDS011;23796;51.458;7.000;2023-10-31T14:05:09;4.68;;;1.40;;
37973;SDS011;23796;51.458;7.000;2023-10-31T14:07:37;3.47;;;1.80;;
37973;SDS011;23796;51.458;7.000;2023-10-31T14:10:03;3.88;;;1.30;;
37973;SDS011;23796;51.458;7.000;2023-10-31T14:12:29;2.42;;;1.27;;
37973;SDS011;23796;51.458;7.000;2023-10-31T14:14:56;3.70;;;1.65;;
37973;SDS011;23796;51.458;7.000;2023-10-31T14:17:24;4.40;;;1.55;;
37973;SDS011;23796;51.458;7.000;2023-10-31T14:19:53;3.17;;;1.15;;
37973;SDS011;23796;51.458;7.000;2023-10-31T14:22:19;3.53;;;1.30;;
37973;SDS011;23796;51.458;7.000;2023-10-31T14:24:44;4.53;;;1.20;;
37973;SDS011;23796;51.458;7.000;2023-10-31T14:27:11;4.82;;;1.42;;
37973;SDS011;23796;51.458;7.000;2023-10-31T14:29:37;2.78;;;1.20;;
37973;SDS011;23796;51.458;7.000;2023-10-31T14:32:08;3.63;;;1.10;;
37973;SDS011;23796;51.458;7.000;2023-10-31T14:34:34;2.70;;;1.13;;
37973;SDS011;23796;51.458;7.000;2023-10-31T14:37:00;3.28;;;1.10;;
37973;SDS011;23796;51.458;7.000;2023-10-31T14:39:26;3.35;;;1.10;;
37973;SDS011;23796;51.458;7.000;2023-10-31T14:41:51;3.58;;;1.70;;
37973;SDS011;23796;51.458;7.000;2023-10-31T14:44:20;4.55;;;1.33;;
37973;SDS011;23796;51.458;7.000;2023-10-31T14:46:46;4.18;;;1.70;;
37973;SDS011;23796;51.458;7.000;2023-10-31T14:49:11;3.47;;;1.10;;